createdAt,value
2022-08-16T00:01:59.974Z,85.80
2022-08-16T00:04:29.554Z,85.70
2022-08-16T00:06:58.649Z,85.60
2022-08-16T00:09:27.750Z,85.60
2022-08-16T00:11:57.036Z,85.50
2022-08-16T00:14:32.318Z,85.40
2022-08-16T00:17:18.822Z,85.40
2022-08-16T00:19:53.393Z,85.20
2022-08-16T00:22:24.823Z,85.10
2022-08-16T00:24:55.346Z,84.80
2022-08-16T00:27:25.068Z,84.80
2022-08-16T00:30:08.521Z,84.70
2022-08-16T00:32:47.007Z,84.50
2022-08-16T00:35:17.951Z,84.30
2022-08-16T00:37:57.641Z,84.20
2022-08-16T00:40:34.254Z,84.20
2022-08-16T00:43:11.632Z,84.20
2022-08-16T00:45:57.831Z,84.10
2022-08-16T00:48:30.466Z,84.00
2022-08-16T00:51:01.090Z,83.90
2022-08-16T00:53:31.852Z,84.00
2022-08-16T00:56:05.703Z,83.90
2022-08-16T00:58:38.506Z,83.90
2022-08-16T01:01:10.648Z,84.00
2022-08-16T01:03:42.748Z,84.00
2022-08-16T01:06:39.540Z,84.30
2022-08-16T01:09:06.198Z,84.30
2022-08-16T01:11:51.956Z,84.30
2022-08-16T01:14:30.239Z,84.30
2022-08-16T01:17:03.810Z,84.50
2022-08-16T01:19:41.273Z,84.50
2022-08-16T01:22:57.621Z,84.60
2022-08-16T01:25:13.077Z,84.60
2022-08-16T01:27:46.989Z,84.70
2022-08-16T01:30:21.914Z,84.50
2022-08-16T01:33:14.095Z,84.60
2022-08-16T01:35:52.367Z,84.50
2022-08-16T01:38:28.367Z,84.40
2022-08-16T01:41:02.645Z,84.30
2022-08-16T01:43:35.925Z,84.40
2022-08-16T01:46:29.887Z,84.40
2022-08-16T01:48:58.491Z,84.50
2022-08-16T01:51:29.373Z,84.40
2022-08-16T01:54:00.400Z,84.50
2022-08-16T01:56:40.347Z,84.50
2022-08-16T01:59:15.880Z,84.60
2022-08-16T02:01:49.725Z,84.60
2022-08-16T02:04:48.710Z,84.70
2022-08-16T02:07:15.493Z,84.90
2022-08-16T02:09:58.626Z,85.00
2022-08-16T02:12:51.499Z,85.00
2022-08-16T02:15:27.199Z,84.90
2022-08-16T02:18:01.093Z,85.10
2022-08-16T02:20:39.437Z,85.00
2022-08-16T02:23:11.685Z,85.20
2022-08-16T02:25:51.859Z,85.00
2022-08-16T02:28:26.274Z,84.90
2022-08-16T02:30:57.871Z,84.70
2022-08-16T02:33:44.612Z,84.50
2022-08-16T02:36:42.441Z,84.30
2022-08-16T02:39:22.401Z,84.00
2022-08-16T02:41:54.290Z,83.70
2022-08-16T02:44:28.407Z,83.60
2022-08-16T02:46:58.853Z,83.50
2022-08-16T02:49:58.296Z,83.30
2022-08-16T02:52:24.764Z,83.30
2022-08-16T02:55:02.008Z,83.30
2022-08-16T02:57:33.523Z,83.20
2022-08-16T03:00:33.908Z,83.30
2022-08-16T03:02:58.633Z,83.00
2022-08-16T03:05:30.958Z,83.00
2022-08-16T03:08:02.362Z,82.90
2022-08-16T03:10:37.216Z,82.60
2022-08-16T03:13:12.551Z,82.40
2022-08-16T03:15:45.196Z,82.50
2022-08-16T03:18:34.500Z,82.50
2022-08-16T03:21:10.161Z,82.50
2022-08-16T03:23:44.436Z,82.60
2022-08-16T03:26:14.693Z,82.60
2022-08-16T03:28:48.234Z,82.70
2022-08-16T03:31:20.080Z,82.70
2022-08-16T03:33:52.311Z,82.80
2022-08-16T03:36:31.106Z,82.90
2022-08-16T03:39:06.261Z,82.90
2022-08-16T03:41:50.341Z,82.90
2022-08-16T03:44:43.279Z,82.70
2022-08-16T03:47:18.916Z,82.60
2022-08-16T03:49:51.844Z,82.50
2022-08-16T03:52:23.965Z,82.50
2022-08-16T03:55:01.510Z,82.60
2022-08-16T03:57:36.348Z,82.60
2022-08-16T04:00:35.483Z,82.50
2022-08-16T04:03:08.853Z,82.30
2022-08-16T04:05:46.815Z,82.30
2022-08-16T04:08:23.291Z,82.30
2022-08-16T04:11:00.651Z,82.30
2022-08-16T04:14:00.812Z,82.30
2022-08-16T04:16:27.535Z,82.10
2022-08-16T04:19:07.272Z,81.90
2022-08-16T04:21:47.320Z,81.70
2022-08-16T04:24:21.400Z,81.60
2022-08-16T04:26:50.620Z,81.60
2022-08-16T04:29:23.688Z,81.70
2022-08-16T04:31:58.032Z,81.60
2022-08-16T04:34:37.242Z,81.60
2022-08-16T04:37:08.117Z,81.50
2022-08-16T04:39:46.545Z,81.40
2022-08-16T04:42:25.984Z,81.40
2022-08-16T04:44:57.798Z,81.40
2022-08-16T04:47:35.590Z,81.40
2022-08-16T04:50:15.065Z,81.40
2022-08-16T04:53:09.669Z,81.30
2022-08-16T04:55:44.722Z,81.20
2022-08-16T04:58:45.255Z,81.10
2022-08-16T05:01:04.861Z,81.10
2022-08-16T05:03:41.902Z,81.00
2022-08-16T05:06:44.944Z,81.00
2022-08-16T05:09:23.053Z,81.00
2022-08-16T05:11:57.251Z,81.10
2022-08-16T05:14:45.475Z,81.10
2022-08-16T05:17:24.641Z,81.00
2022-08-16T05:19:57.481Z,80.90
2022-08-16T05:22:32.964Z,80.90
2022-08-16T05:25:09.049Z,80.90
2022-08-16T05:27:42.817Z,81.00
2022-08-16T05:30:34.792Z,80.90
2022-08-16T05:33:16.543Z,80.80
2022-08-16T05:35:54.984Z,80.80
2022-08-16T05:38:40.166Z,80.70
2022-08-16T05:41:17.014Z,80.60
2022-08-16T05:43:48.147Z,80.50
2022-08-16T05:46:28.654Z,80.30
2022-08-16T05:49:08.787Z,80.30
2022-08-16T05:51:41.764Z,80.30
2022-08-16T05:54:20.258Z,80.30
2022-08-16T05:56:56.241Z,80.30
2022-08-16T05:59:27.015Z,80.20
2022-08-16T06:01:57.365Z,79.90
2022-08-16T06:04:36.470Z,80.00
2022-08-16T06:07:24.699Z,79.80
2022-08-16T06:10:08.146Z,79.80
2022-08-16T06:12:39.980Z,79.80
2022-08-16T06:15:12.112Z,79.60
2022-08-16T06:17:46.311Z,79.60
2022-08-16T06:20:34.741Z,79.60
2022-08-16T06:23:11.785Z,79.40
2022-08-16T06:26:09.826Z,79.50
2022-08-16T06:28:43.221Z,79.50
2022-08-16T06:31:25.793Z,79.30
2022-08-16T06:33:57.419Z,79.40
2022-08-16T06:36:29.445Z,79.40
2022-08-16T06:39:16.276Z,79.30
2022-08-16T06:41:55.940Z,79.00
2022-08-16T06:44:43.550Z,79.00
2022-08-16T06:47:52.610Z,78.90
2022-08-16T06:50:21.899Z,78.80
2022-08-16T06:52:59.586Z,78.70
2022-08-16T06:55:33.688Z,78.50
2022-08-16T06:58:08.878Z,78.30
2022-08-16T07:00:59.795Z,78.20
2022-08-16T07:03:32.345Z,78.30
2022-08-16T07:06:22.212Z,78.30
2022-08-16T07:08:57.691Z,78.30
2022-08-16T07:11:47.839Z,78.20
2022-08-16T07:14:29.026Z,78.20
2022-08-16T07:17:01.737Z,78.00
2022-08-16T07:20:03.563Z,78.00
2022-08-16T07:22:37.965Z,78.10
2022-08-16T07:25:17.094Z,78.00
2022-08-16T07:27:47.897Z,77.80
2022-08-16T07:30:44.989Z,77.80
2022-08-16T07:33:52.088Z,77.50
2022-08-16T07:36:12.099Z,77.30
2022-08-16T07:38:47.078Z,76.90
2022-08-16T07:41:19.825Z,76.70
2022-08-16T07:43:53.985Z,76.60
2022-08-16T07:46:38.609Z,76.50
2022-08-16T07:49:19.431Z,76.30
2022-08-16T07:51:49.253Z,76.20
2022-08-16T07:54:32.085Z,76.00
2022-08-16T07:57:04.400Z,75.90
2022-08-16T07:59:45.783Z,75.60
2022-08-16T08:02:19.989Z,75.60
2022-08-16T08:04:52.585Z,75.60
2022-08-16T08:07:22.298Z,75.70
2022-08-16T08:09:58.140Z,75.30
2022-08-16T08:12:32.649Z,75.00
2022-08-16T08:15:10.097Z,74.50
2022-08-16T08:17:44.096Z,74.40
2022-08-16T08:20:28.599Z,74.00
2022-08-16T08:23:01.665Z,73.90
2022-08-16T08:25:55.384Z,73.70
2022-08-16T08:28:31.969Z,73.50
2022-08-16T08:31:04.818Z,73.40
2022-08-16T08:33:46.674Z,73.40
2022-08-16T08:36:25.104Z,73.40
2022-08-16T08:39:12.516Z,73.30
2022-08-16T08:41:43.168Z,73.00
2022-08-16T08:44:28.387Z,72.80
2022-08-16T08:47:03.333Z,72.90
2022-08-16T08:49:46.258Z,72.90
2022-08-16T08:52:35.369Z,72.70
2022-08-16T08:55:12.857Z,72.40
2022-08-16T08:57:48.803Z,72.10
2022-08-16T09:00:31.846Z,71.60
2022-08-16T09:03:19.442Z,71.60
2022-08-16T09:05:52.136Z,71.10
2022-08-16T09:08:26.424Z,70.90
2022-08-16T09:11:04.083Z,71.00
2022-08-16T09:13:37.867Z,70.90
2022-08-16T09:17:02.996Z,70.80
2022-08-16T09:21:42.922Z,70.40
2022-08-16T09:24:39.138Z,69.90
2022-08-16T09:27:06.415Z,69.80
2022-08-16T09:29:45.273Z,69.70
2022-08-16T09:32:28.523Z,69.40
2022-08-16T09:34:59.968Z,69.10
2022-08-16T09:37:36.429Z,69.10
2022-08-16T09:40:31.905Z,68.90
2022-08-16T09:42:58.923Z,68.60
2022-08-16T09:45:30.202Z,68.50
2022-08-16T09:48:00.391Z,68.40
2022-08-16T09:50:37.179Z,68.30
2022-08-16T09:53:15.589Z,67.90
2022-08-16T09:55:49.657Z,67.50
2022-08-16T09:58:40.482Z,67.50
2022-08-16T10:01:11.391Z,67.50
2022-08-16T10:04:01.924Z,67.80
2022-08-16T10:06:33.896Z,67.90
2022-08-16T10:09:06.842Z,67.60
2022-08-16T10:12:11.835Z,67.60
2022-08-16T10:14:46.830Z,67.60
2022-08-16T10:17:15.852Z,67.50
2022-08-16T10:19:47.138Z,67.20
2022-08-16T10:22:19.617Z,67.20
2022-08-16T10:24:59.685Z,66.90
2022-08-16T10:27:29.841Z,66.30
2022-08-16T10:30:26.283Z,65.50
2022-08-16T10:32:57.878Z,65.30
2022-08-16T10:35:33.095Z,65.10
2022-08-16T10:38:06.303Z,64.90
2022-08-16T10:40:37.556Z,64.80
2022-08-16T10:43:08.391Z,63.90
2022-08-16T10:46:00.543Z,64.10
2022-08-16T10:48:31.302Z,64.40
2022-08-16T10:51:00.770Z,64.70
2022-08-16T10:53:32.772Z,64.90
2022-08-16T10:56:52.855Z,64.40
2022-08-16T10:59:32.424Z,64.30
2022-08-16T11:10:21.245Z,64.70
2022-08-16T11:16:01.179Z,64.80
2022-08-16T11:19:03.237Z,64.30
2022-08-16T11:21:29.045Z,64.40
2022-08-16T11:23:59.863Z,64.30
2022-08-16T11:26:29.856Z,64.20
2022-08-16T11:29:16.013Z,64.20
2022-08-16T11:31:54.005Z,64.10
2022-08-16T11:34:23.615Z,64.00
2022-08-16T11:37:01.040Z,63.80
2022-08-16T11:39:32.065Z,63.80
2022-08-16T11:42:03.615Z,64.10
2022-08-16T11:44:56.289Z,64.10
2022-08-16T11:47:26.380Z,64.40
2022-08-16T11:49:55.463Z,64.60
2022-08-16T11:52:24.504Z,64.80
2022-08-16T11:55:00.165Z,64.70
2022-08-16T11:57:29.627Z,64.60
2022-08-16T12:00:02.800Z,64.60
2022-08-16T12:02:45.784Z,64.60
2022-08-16T12:05:17.315Z,64.40
2022-08-16T12:07:46.562Z,64.40
2022-08-16T12:10:19.098Z,64.50
2022-08-16T12:12:48.325Z,64.60
2022-08-16T12:15:23.371Z,64.70
2022-08-16T12:17:52.437Z,64.70
2022-08-16T12:20:24.627Z,64.60
2022-08-16T12:22:57.038Z,64.40
2022-08-16T12:25:29.204Z,64.30
2022-08-16T12:27:59.820Z,64.60
2022-08-16T12:30:38.909Z,64.90
2022-08-16T12:33:10.639Z,65.00
2022-08-16T12:35:41.909Z,64.90
2022-08-16T12:38:41.780Z,64.90
2022-08-16T12:41:01.531Z,64.90
2022-08-16T12:43:31.503Z,64.90
2022-08-16T12:46:02.283Z,64.70
2022-08-16T12:48:52.672Z,64.60
2022-08-16T12:51:24.436Z,64.70
2022-08-16T12:53:56.267Z,64.80
2022-08-16T12:56:31.310Z,64.80
2022-08-16T12:59:03.022Z,65.00
2022-08-16T13:01:35.360Z,64.80
2022-08-16T13:04:20.177Z,64.60
2022-08-16T13:06:52.566Z,64.60
2022-08-16T13:09:26.782Z,64.20
2022-08-16T13:12:05.687Z,63.70
2022-08-16T13:14:41.367Z,63.20
2022-08-16T13:17:19.850Z,63.00
2022-08-16T13:20:11.386Z,62.90
2022-08-16T13:22:43.765Z,62.70
2022-08-16T13:25:20.931Z,62.40
2022-08-16T13:28:02.605Z,62.30
2022-08-16T13:30:41.281Z,62.10
2022-08-16T13:33:18.917Z,61.80
2022-08-16T13:35:55.643Z,61.50
2022-08-16T13:38:36.441Z,61.30
2022-08-16T13:41:08.472Z,61.50
2022-08-16T13:43:39.239Z,61.70
2022-08-16T13:46:08.843Z,61.90
2022-08-16T13:48:44.410Z,62.00
2022-08-16T13:51:17.555Z,62.00
2022-08-16T13:53:54.529Z,61.90
2022-08-16T13:56:38.078Z,62.20
2022-08-16T13:59:19.686Z,62.00
2022-08-16T14:01:55.244Z,62.10
2022-08-16T14:04:28.292Z,62.30
2022-08-16T14:06:58.565Z,62.50
2022-08-16T14:09:28.750Z,62.30
2022-08-16T14:11:58.724Z,62.00
2022-08-16T14:14:30.581Z,61.60
2022-08-16T14:17:01.666Z,61.30
2022-08-16T14:19:32.520Z,60.90
2022-08-16T14:22:13.748Z,60.80
2022-08-16T14:24:46.928Z,60.90
2022-08-16T14:27:17.987Z,60.80
2022-08-16T14:29:49.158Z,60.70
2022-08-16T14:32:32.654Z,60.60
2022-08-16T14:35:08.461Z,60.30
2022-08-16T14:37:38.452Z,60.30
2022-08-16T14:40:10.269Z,60.50
2022-08-16T14:42:44.110Z,60.30
2022-08-16T14:45:15.618Z,60.60
2022-08-16T14:47:46.513Z,60.90
2022-08-16T14:50:22.206Z,61.10
2022-08-16T14:52:57.607Z,61.10
2022-08-16T14:55:28.448Z,60.80
2022-08-16T14:57:57.853Z,60.50
2022-08-16T15:00:33.822Z,60.70
2022-08-16T15:03:06.934Z,60.80
2022-08-16T15:05:42.542Z,61.00
2022-08-16T15:08:11.864Z,60.80
2022-08-16T15:10:44.786Z,60.90
2022-08-16T15:13:15.557Z,61.10
2022-08-16T15:15:56.325Z,61.10
2022-08-16T15:18:31.513Z,61.10
2022-08-16T15:21:04.056Z,61.10
2022-08-16T15:23:34.335Z,61.20
2022-08-16T15:26:08.364Z,61.30
2022-08-16T15:28:38.326Z,61.30
2022-08-16T15:31:09.813Z,61.10
2022-08-16T15:33:44.443Z,61.00
2022-08-16T15:36:19.295Z,61.00
2022-08-16T15:39:02.916Z,61.10
2022-08-16T15:42:01.245Z,61.40
2022-08-16T15:44:44.542Z,61.50
2022-08-16T15:47:25.711Z,61.50
2022-08-16T15:49:56.352Z,61.50
2022-08-16T15:52:30.234Z,61.40
2022-08-16T15:55:13.342Z,61.10
2022-08-16T15:57:51.164Z,61.10
2022-08-16T16:00:21.840Z,61.10
2022-08-16T16:03:00.218Z,60.90
2022-08-16T16:05:30.255Z,60.90
2022-08-16T16:08:12.295Z,60.90
2022-08-16T16:10:43.395Z,60.90
2022-08-16T16:13:13.773Z,60.90
2022-08-16T16:15:45.453Z,60.70
2022-08-16T16:18:15.248Z,60.50
2022-08-16T16:20:47.519Z,60.10
2022-08-16T16:23:23.569Z,59.50
2022-08-16T16:25:53.275Z,58.90
2022-08-16T16:29:05.478Z,58.80
2022-08-16T16:31:15.662Z,58.40
2022-08-16T16:33:47.746Z,58.20
2022-08-16T16:36:24.303Z,57.90
2022-08-16T16:38:57.413Z,57.70
2022-08-16T16:41:29.205Z,57.50
2022-08-16T16:44:01.422Z,57.50
2022-08-16T16:46:42.691Z,57.50
2022-08-16T16:49:14.595Z,57.60
2022-08-16T16:51:47.237Z,57.40
2022-08-16T16:54:28.109Z,57.10
2022-08-16T16:56:58.602Z,56.80
2022-08-16T16:59:28.009Z,56.80
2022-08-16T17:02:40.936Z,57.00
2022-08-16T17:04:49.234Z,57.10
2022-08-16T17:07:20.559Z,57.20
2022-08-16T17:09:54.692Z,57.30
2022-08-16T17:12:47.155Z,57.10
2022-08-16T17:15:15.099Z,56.80
2022-08-16T17:17:59.122Z,56.60
2022-08-16T17:20:28.929Z,56.30
2022-08-16T17:22:58.612Z,55.90
2022-08-16T17:25:36.383Z,55.90
2022-08-16T17:28:59.033Z,55.80
2022-08-16T17:30:57.168Z,55.80
2022-08-16T17:33:26.933Z,55.90
2022-08-16T17:38:57.226Z,55.60
2022-08-16T17:39:27.264Z,55.80
2022-08-16T17:41:27.748Z,55.60
2022-08-16T17:43:56.967Z,55.60
2022-08-16T17:46:41.316Z,55.60
2022-08-16T17:49:15.200Z,55.60
2022-08-16T17:51:44.334Z,55.50
2022-08-16T17:54:29.783Z,55.50
2022-08-16T17:57:02.203Z,55.50
2022-08-16T17:59:31.791Z,55.70
2022-08-16T18:02:42.112Z,55.60
2022-08-16T18:04:57.191Z,55.40
2022-08-16T18:07:26.267Z,55.10
2022-08-16T18:09:55.376Z,54.90
2022-08-16T18:12:54.484Z,54.90
2022-08-16T18:15:18.323Z,54.90
2022-08-16T18:17:48.610Z,54.80
2022-08-16T18:20:31.655Z,54.70
2022-08-16T18:23:06.454Z,54.80
2022-08-16T18:25:35.834Z,54.80
2022-08-16T18:28:06.395Z,54.80
2022-08-16T18:30:35.431Z,54.70
2022-08-16T18:33:04.789Z,54.70
2022-08-16T18:35:34.206Z,54.70
2022-08-16T18:38:03.345Z,54.80
2022-08-16T18:40:33.229Z,55.00
2022-08-16T18:43:08.523Z,54.80
2022-08-16T18:45:40.874Z,54.60
2022-08-16T18:48:11.836Z,54.50
2022-08-16T18:50:59.650Z,54.30
2022-08-16T18:53:34.062Z,54.30
2022-08-16T18:56:04.291Z,54.20
2022-08-16T18:58:35.327Z,54.30
2022-08-16T19:01:04.544Z,54.40
2022-08-16T19:03:34.411Z,54.40
2022-08-16T19:06:05.847Z,54.20
2022-08-16T19:08:36.457Z,53.70
2022-08-16T19:11:06.528Z,53.50
2022-08-16T19:13:40.382Z,53.50
2022-08-16T19:16:09.600Z,53.40
2022-08-16T19:18:38.713Z,53.50
2022-08-16T19:21:09.240Z,53.70
2022-08-16T19:23:39.034Z,53.80
2022-08-16T19:26:23.477Z,53.90
2022-08-16T19:28:58.599Z,53.90
2022-08-16T19:31:31.829Z,54.00
2022-08-16T19:34:02.300Z,54.10
2022-08-16T19:36:36.060Z,54.20
2022-08-16T19:39:08.819Z,54.30
2022-08-16T19:41:39.687Z,54.60
2022-08-16T19:44:10.346Z,54.80
2022-08-16T19:46:43.569Z,55.00
2022-08-16T19:49:16.421Z,55.00
2022-08-16T19:51:46.237Z,55.00
2022-08-16T19:54:15.640Z,55.00
2022-08-16T19:56:44.839Z,55.10
2022-08-16T19:59:19.384Z,55.30
2022-08-16T20:01:52.049Z,55.50
2022-08-16T20:04:22.150Z,55.60
2022-08-16T20:06:52.526Z,55.70
2022-08-16T20:09:22.746Z,55.70
2022-08-16T20:11:53.908Z,55.70
2022-08-16T20:14:26.486Z,55.80
2022-08-16T20:16:57.311Z,56.00
2022-08-16T20:19:27.475Z,56.10
2022-08-16T20:22:01.000Z,56.20
2022-08-16T20:24:36.205Z,56.30
2022-08-16T20:27:09.620Z,56.40
2022-08-16T20:29:42.166Z,56.80
2022-08-16T20:32:13.828Z,56.90
2022-08-16T20:34:43.572Z,57.00
2022-08-16T20:37:15.273Z,57.20
2022-08-16T20:39:45.627Z,57.40
2022-08-16T20:42:16.037Z,57.70
2022-08-16T20:44:46.651Z,57.90
2022-08-16T20:47:16.021Z,58.00
2022-08-16T20:49:45.129Z,58.20
2022-08-16T20:52:16.785Z,58.50
2022-08-16T20:54:46.796Z,58.60
2022-08-16T20:57:16.503Z,58.50
2022-08-16T20:59:50.182Z,58.50
2022-08-16T21:02:25.703Z,58.30
2022-08-16T21:04:54.854Z,58.10
2022-08-16T21:07:24.223Z,58.20
2022-08-16T21:09:54.083Z,58.20
2022-08-16T21:12:23.549Z,58.30
2022-08-16T21:14:57.596Z,58.40
2022-08-16T21:17:28.129Z,58.30
2022-08-16T21:19:57.236Z,58.10
2022-08-16T21:22:26.708Z,58.00
2022-08-16T21:24:57.496Z,57.90
2022-08-16T21:27:28.500Z,58.00
2022-08-16T21:30:00.867Z,58.20
2022-08-16T21:32:35.330Z,58.30
2022-08-16T21:35:09.743Z,58.30
2022-08-16T21:37:39.061Z,58.40
2022-08-16T21:40:10.643Z,58.40
2022-08-16T21:42:41.329Z,58.40
2022-08-16T21:45:14.795Z,58.20
2022-08-16T21:47:44.156Z,58.20
2022-08-16T21:50:15.332Z,58.20
2022-08-16T21:52:44.449Z,58.20
2022-08-16T21:55:13.530Z,58.30
2022-08-16T21:57:42.677Z,58.50
2022-08-16T22:00:15.142Z,58.60
2022-08-16T22:02:47.903Z,58.70
2022-08-16T22:05:19.723Z,58.60
2022-08-16T22:07:48.934Z,58.60
2022-08-16T22:11:06.240Z,58.60
2022-08-16T22:13:14.690Z,58.60
2022-08-16T22:15:46.873Z,58.60
2022-08-16T22:18:17.355Z,58.60
2022-08-16T22:20:47.011Z,58.50
2022-08-16T22:23:18.636Z,58.50
2022-08-16T22:25:49.094Z,58.50
2022-08-16T22:28:19.325Z,58.50
2022-08-16T22:30:50.222Z,58.50
2022-08-16T22:33:21.649Z,58.50
2022-08-16T22:35:53.442Z,58.50
2022-08-16T22:38:55.084Z,58.50
2022-08-16T22:41:11.939Z,58.50
2022-08-16T22:43:41.016Z,58.40
2022-08-16T22:46:11.544Z,58.40
2022-08-16T22:48:42.598Z,58.30
2022-08-16T22:51:11.713Z,58.20
2022-08-16T22:53:40.645Z,58.30
2022-08-16T22:56:10.004Z,58.40
2022-08-16T22:58:39.379Z,58.50
2022-08-16T23:01:09.883Z,58.50
2022-08-16T23:03:40.542Z,58.70
2022-08-16T23:06:10.428Z,58.60
2022-08-16T23:08:41.611Z,58.70
2022-08-16T23:11:12.493Z,58.80
2022-08-16T23:13:53.149Z,59.00
2022-08-16T23:16:25.156Z,59.00
2022-08-16T23:19:06.771Z,59.10
2022-08-16T23:21:37.308Z,59.20
2022-08-16T23:24:07.476Z,59.30
2022-08-16T23:26:45.980Z,59.30
2022-08-16T23:29:23.900Z,59.40
2022-08-16T23:31:56.383Z,59.50
2022-08-16T23:34:28.609Z,59.40
2022-08-16T23:36:58.089Z,59.40
2022-08-16T23:39:27.242Z,59.50
2022-08-16T23:41:56.751Z,59.50
2022-08-16T23:44:57.030Z,59.60
2022-08-16T23:47:14.996Z,59.60
2022-08-16T23:50:01.062Z,59.70
2022-08-16T23:52:54.855Z,59.70
2022-08-16T23:55:22.520Z,59.70
2022-08-16T23:57:52.393Z,59.70
